Time;durP1;ratioP1;P1;durP2;ratioP2;P2;SDS_P1;SDS_P2;PMS_P1;PMS_P2;Temp;Humidity;BMP_temperature;BMP_pressure;BME280_temperature;BME280_humidity;BME280_pressure;Samples;Min_cycle;Max_cycle;Signal;HPM_P1;HPM_P2
2023/02/22 00:00:47;;;;;;;101.63;22.30;;;11.60;90.80;;;;;;5045593;28;20029;-57
2023/02/22 00:03:03;;;;;;;113.70;20.58;;;11.60;90.80;;;;;;5043598;28;20033;-57
2023/02/22 00:05:30;;;;;;;128.23;20.50;;;11.60;90.80;;;;;;5045847;28;20120;-57
2023/02/22 00:07:56;;;;;;;125.93;20.42;;;11.60;90.90;;;;;;5044468;28;20030;-57
2023/02/22 00:10:22;;;;;;;116.47;19.33;;;11.60;90.80;;;;;;5027946;28;20033;-57
2023/02/22 00:12:49;;;;;;;106.35;19.63;;;11.60;90.80;;;;;;5043774;28;20079;-57
2023/02/22 00:15:16;;;;;;;111.43;18.80;;;11.50;90.70;;;;;;5044523;28;20053;-57
2023/02/22 00:17:41;;;;;;;128.05;20.75;;;11.50;90.70;;;;;;5045827;28;20151;-57
2023/02/22 00:20:08;;;;;;;113.80;19.75;;;11.50;90.70;;;;;;5044411;28;20025;-57
2023/02/22 00:22:48;;;;;;;112.70;19.17;;;11.50;90.70;;;;;;5028387;28;20025;-57
2023/02/22 00:25:16;;;;;;;100.18;19.95;;;11.50;91.10;;;;;;5044607;28;20100;-57
2023/02/22 00:27:41;;;;;;;110.03;20.13;;;11.40;90.80;;;;;;5044212;28;20109;-57
2023/02/22 00:30:08;;;;;;;104.10;18.17;;;11.40;90.80;;;;;;5044453;28;20041;-57
2023/02/22 00:32:34;;;;;;;109.47;18.92;;;11.40;90.80;;;;;;5043950;28;20030;-57
2023/02/22 00:35:00;;;;;;;79.72;17.85;;;11.40;90.90;;;;;;5045434;28;20343;-57
2023/02/22 00:37:25;;;;;;;85.57;16.73;;;11.40;90.80;;;;;;5027329;28;20036;-57
2023/02/22 00:39:51;;;;;;;96.55;17.42;;;11.40;90.90;;;;;;5043861;28;20121;-57
2023/02/22 00:42:17;;;;;;;90.18;16.83;;;11.30;90.90;;;;;;5043828;28;20091;-57
2023/02/22 00:44:42;;;;;;;98.15;17.42;;;11.30;90.90;;;;;;5043883;28;20044;-57
2023/02/22 00:47:08;;;;;;;85.13;18.30;;;11.30;90.90;;;;;;5043614;28;20033;-57
2023/02/22 00:49:34;;;;;;;78.50;17.92;;;11.30;90.90;;;;;;5043829;28;20048;-57
2023/02/22 00:52:00;;;;;;;81.68;16.77;;;11.20;90.90;;;;;;5043754;28;20026;-57
2023/02/22 00:54:25;;;;;;;88.38;16.60;;;11.20;90.90;;;;;;5043651;28;20493;-57
2023/02/22 00:56:51;;;;;;;87.88;17.05;;;11.20;90.90;;;;;;5045019;28;20021;-57
2023/02/22 00:59:16;;;;;;;80.13;16.10;;;11.20;90.90;;;;;;5027262;28;20021;-57
2023/02/22 01:01:42;;;;;;;81.32;15.75;;;11.20;90.90;;;;;;5043508;28;20037;-57
2023/02/22 01:04:08;;;;;;;78.07;15.68;;;11.10;90.90;;;;;;5043618;28;20075;-57
2023/02/22 01:06:33;;;;;;;82.60;17.55;;;11.10;90.90;;;;;;5045213;28;20083;-57
2023/02/22 01:09:01;;;;;;;77.75;16.65;;;11.10;90.90;;;;;;5043038;28;20021;-57
2023/02/22 01:11:26;;;;;;;88.90;16.13;;;11.10;91.00;;;;;;5043624;28;20037;-57
2023/02/22 01:13:56;;;;;;;71.43;16.13;;;11.10;91.00;;;;;;5043592;28;20435;-57
2023/02/22 01:16:22;;;;;;;84.10;15.57;;;11.00;91.00;;;;;;5044840;28;20394;-57
2023/02/22 01:18:47;;;;;;;65.95;15.45;;;11.00;91.00;;;;;;5043583;28;20056;-57
2023/02/22 01:21:13;;;;;;;66.63;14.85;;;11.00;91.10;;;;;;5043541;28;20029;-57
2023/02/22 01:23:38;;;;;;;82.00;15.95;;;11.00;91.10;;;;;;5043371;28;20535;-57
2023/02/22 01:26:04;;;;;;;64.30;15.43;;;11.00;91.00;;;;;;5043513;28;20187;-57
2023/02/22 01:28:33;;;;;;;55.85;14.48;;;10.90;91.00;;;;;;5043072;28;20042;-57
2023/02/22 01:31:00;;;;;;;78.10;15.02;;;10.90;91.00;;;;;;5043532;28;20075;-57
2023/02/22 01:33:26;;;;;;;69.68;15.25;;;10.90;91.00;;;;;;5044341;28;20021;-57
2023/02/22 01:35:51;;;;;;;77.80;15.57;;;10.90;91.00;;;;;;5043147;28;20029;-57
2023/02/22 01:38:17;;;;;;;58.78;13.90;;;10.90;91.10;;;;;;5043295;28;20437;-57
2023/02/22 01:40:45;;;;;;;60.45;15.13;;;10.90;91.10;;;;;;5044588;28;20025;-57
2023/02/22 01:43:20;;;;;;;60.47;14.70;;;10.80;91.00;;;;;;5043506;28;20178;-57
2023/02/22 01:45:53;;;;;;;51.97;14.48;;;10.80;91.10;;;;;;5043197;28;20045;-57
2023/02/22 01:48:31;;;;;;;63.05;14.68;;;10.80;91.40;;;;;;5026348;28;20200;-57
2023/02/22 01:51:13;;;;;;;53.33;13.88;;;10.70;91.10;;;;;;5043476;28;20052;-57
2023/02/22 01:53:46;;;;;;;65.60;15.18;;;10.70;91.10;;;;;;5043038;28;20159;-57
2023/02/22 01:56:11;;;;;;;53.78;14.55;;;10.70;91.10;;;;;;5043169;28;20029;-57
2023/02/22 01:58:39;;;;;;;62.58;13.15;;;10.70;91.10;;;;;;5026484;28;20094;-57
2023/02/22 02:01:05;;;;;;;59.08;14.15;;;10.70;91.10;;;;;;5026748;28;20044;-57
2023/02/22 02:03:32;;;;;;;42.55;12.63;;;10.70;91.10;;;;;;5042894;28;20104;-57
2023/02/22 02:05:59;;;;;;;58.65;12.90;;;10.60;91.10;;;;;;5042699;28;20487;-57
2023/02/22 02:08:36;;;;;;;52.88;12.75;;;10.60;91.20;;;;;;5042821;28;20040;-57
2023/02/22 02:11:04;;;;;;;57.75;12.93;;;10.60;91.10;;;;;;5043030;28;20021;-57
2023/02/22 02:13:29;;;;;;;49.63;12.43;;;10.60;91.10;;;;;;5044276;28;20083;-57
2023/02/22 02:15:55;;;;;;;48.05;11.93;;;10.50;91.20;;;;;;5042865;28;20029;-57
2023/02/22 02:18:20;;;;;;;41.42;11.82;;;10.50;91.30;;;;;;5044131;28;20053;-57
2023/02/22 02:20:49;;;;;;;44.88;11.60;;;10.50;91.30;;;;;;5027466;28;20033;-57
2023/02/22 02:23:29;;;;;;;46.47;12.32;;;10.50;91.30;;;;;;5047621;28;20026;-57
2023/02/22 02:26:22;;;;;;;38.80;12.10;;;10.50;91.40;;;;;;5062942;28;20045;-57
2023/02/22 02:29:18;;;;;;;38.72;12.00;;;10.50;91.40;;;;;;5046315;28;20034;-57
2023/02/22 02:32:30;;;;;;;40.53;11.80;;;10.50;91.40;;;;;;5029652;28;20030;-57
2023/02/22 02:35:05;;;;;;;39.22;11.63;;;10.50;91.50;;;;;;5046171;28;20041;-57
2023/02/22 02:37:41;;;;;;;38.57;12.37;;;10.40;91.40;;;;;;5047197;28;20496;-57
2023/02/22 02:40:35;;;;;;;34.00;11.63;;;10.40;91.50;;;;;;5046160;28;20033;-57
2023/02/22 02:43:15;;;;;;;26.75;10.73;;;10.40;91.50;;;;;;5046296;28;20040;-57
2023/02/22 02:45:57;;;;;;;32.47;10.30;;;10.40;91.50;;;;;;5047452;28;20053;-57
2023/02/22 02:48:25;;;;;;;35.42;11.52;;;10.40;91.50;;;;;;5045684;28;20044;-57
2023/02/22 02:50:51;;;;;;;35.38;12.25;;;10.40;91.50;;;;;;5045886;28;20034;-57
2023/02/22 02:53:20;;;;;;;43.95;11.95;;;10.40;91.50;;;;;;5045717;28;20112;-57
2023/02/22 02:55:46;;;;;;;35.92;12.02;;;10.40;91.90;;;;;;5045990;28;20025;-57
2023/02/22 02:58:19;;;;;;;40.08;12.60;;;10.30;91.60;;;;;;5045789;28;20026;-57
2023/02/22 03:00:45;;;;;;;33.97;11.68;;;10.30;91.50;;;;;;5045762;28;20025;-57
2023/02/22 03:03:32;;;;;;;30.88;11.68;;;10.30;91.50;;;;;;5045855;28;20339;-57
2023/02/22 03:06:13;;;;;;;35.60;11.80;;;10.30;91.50;;;;;;5047103;28;20034;-57
2023/02/22 03:09:04;;;;;;;36.10;11.63;;;10.30;91.50;;;;;;5045819;28;20064;-57
2023/02/22 03:11:40;;;;;;;34.20;11.50;;;10.30;91.50;;;;;;5045618;28;20109;-57
2023/02/22 03:14:23;;;;;;;40.78;11.52;;;10.30;91.50;;;;;;5045392;28;20079;-57
2023/02/22 03:16:53;;;;;;;39.90;11.70;;;10.30;91.50;;;;;;5045351;28;20457;-57
2023/02/22 03:19:24;;;;;;;24.77;10.48;;;10.30;91.50;;;;;;5045356;28;20045;-57
2023/02/22 03:22:13;;;;;;;33.90;11.27;;;10.30;91.50;;;;;;5046658;28;20032;-57
2023/02/22 03:24:51;;;;;;;31.98;11.57;;;10.30;91.50;;;;;;5045095;28;20041;-56
2023/02/22 03:27:26;;;;;;;35.40;11.05;;;10.20;91.60;;;;;;5044709;28;20422;-57
2023/02/22 03:29:54;;;;;;;29.13;10.27;;;10.20;91.50;;;;;;5045048;28;20458;-57
2023/02/22 03:32:21;;;;;;;32.35;10.00;;;10.20;91.60;;;;;;5044824;28;20044;-57
2023/02/22 03:35:15;;;;;;;28.20;11.05;;;10.20;91.60;;;;;;5045064;28;20064;-57
2023/02/22 03:37:43;;;;;;;27.58;10.93;;;10.20;91.60;;;;;;5044572;28;20048;-57
2023/02/22 03:40:14;;;;;;;28.30;10.60;;;10.20;91.60;;;;;;5044896;28;20048;-57
2023/02/22 03:42:44;;;;;;;35.72;11.25;;;10.20;91.70;;;;;;5044873;28;20029;-57
2023/02/22 03:45:11;;;;;;;26.70;10.57;;;10.20;91.70;;;;;;5045009;28;20030;-56
2023/02/22 03:47:41;;;;;;;31.05;10.30;;;10.20;91.80;;;;;;5044671;28;20124;-57
2023/02/22 03:50:14;;;;;;;29.13;10.10;;;10.20;91.70;;;;;;5044817;28;20061;-57
2023/02/22 03:52:40;;;;;;;26.17;9.82;;;10.10;91.70;;;;;;5044729;28;20116;-57
2023/02/22 03:55:09;;;;;;;23.45;9.43;;;10.10;91.70;;;;;;5044739;28;20040;-57
2023/02/22 03:57:37;;;;;;;31.58;9.27;;;10.10;91.70;;;;;;5044982;28;20032;-57
2023/02/22 04:00:07;;;;;;;27.88;9.88;;;10.10;91.80;;;;;;5044524;28;20051;-57
2023/02/22 04:02:33;;;;;;;29.73;10.27;;;10.10;91.70;;;;;;5044285;28;20029;-57
2023/02/22 04:04:58;;;;;;;28.23;10.23;;;10.10;91.90;;;;;;5045887;28;20408;-57
2023/02/22 04:07:24;;;;;;;32.05;10.93;;;10.00;91.90;;;;;;5044222;28;20037;-57
2023/02/22 04:09:49;;;;;;;25.98;10.30;;;10.00;92.20;;;;;;5027569;28;20040;-57
2023/02/22 04:12:15;;;;;;;28.08;9.93;;;10.00;91.90;;;;;;5044064;28;20091;-57
2023/02/22 04:14:41;;;;;;;28.92;10.40;;;10.00;91.90;;;;;;5045484;28;20043;-57
2023/02/22 04:17:06;;;;;;;29.70;11.10;;;10.00;91.80;;;;;;5044266;28;20022;-57
2023/02/22 04:19:32;;;;;;;28.08;10.43;;;10.00;91.70;;;;;;5044120;28;20084;-57
2023/02/22 04:21:57;;;;;;;24.30;9.90;;;10.00;91.70;;;;;;5045433;28;20021;-57
2023/02/22 04:24:23;;;;;;;27.05;10.57;;;10.00;91.70;;;;;;5044294;28;20025;-57
2023/02/22 04:26:49;;;;;;;28.52;10.65;;;10.00;91.70;;;;;;5060664;28;20034;-57
2023/02/22 04:29:14;;;;;;;20.02;10.05;;;10.00;91.70;;;;;;5043982;28;20498;-57
2023/02/22 04:31:40;;;;;;;24.33;10.07;;;9.90;91.80;;;;;;5044109;28;20148;-57
2023/02/22 04:34:05;;;;;;;27.90;10.50;;;9.90;91.80;;;;;;5044959;28;20045;-57
2023/02/22 04:36:31;;;;;;;135.00;19.42;;;9.90;91.70;;;;;;5043901;28;20045;-57
2023/02/22 04:38:57;;;;;;;108.82;19.92;;;9.90;91.70;;;;;;5043776;28;20027;-57
2023/02/22 04:41:23;;;;;;;47.88;13.65;;;9.90;91.70;;;;;;5043573;28;20049;-57
2023/02/22 04:43:48;;;;;;;59.92;13.13;;;9.80;91.70;;;;;;5043018;28;20346;-57
2023/02/22 04:46:14;;;;;;;62.50;13.90;;;9.80;91.70;;;;;;5045014;28;20112;-57
2023/02/22 04:48:40;;;;;;;42.33;13.30;;;9.80;91.70;;;;;;5043479;28;20040;-57
2023/02/22 04:51:05;;;;;;;40.20;13.93;;;9.80;91.70;;;;;;5044926;28;20501;-55
2023/02/22 04:53:31;;;;;;;51.25;13.50;;;9.80;91.70;;;;;;5043524;28;20040;-57
2023/02/22 04:55:56;;;;;;;46.97;12.98;;;9.70;91.70;;;;;;5045020;28;20032;-57
2023/02/22 04:58:22;;;;;;;31.90;13.02;;;9.70;91.70;;;;;;5045043;28;20108;-57
2023/02/22 05:00:48;;;;;;;39.17;12.98;;;9.70;91.70;;;;;;5044805;28;20048;-57
2023/02/22 05:03:13;;;;;;;39.72;12.02;;;9.70;91.60;;;;;;5043491;28;20037;-57
2023/02/22 05:05:39;;;;;;;35.17;12.10;;;9.70;91.60;;;;;;5043568;28;20068;-57
2023/02/22 05:08:04;;;;;;;37.60;11.57;;;9.70;91.60;;;;;;5044842;28;20457;-57
2023/02/22 05:10:30;;;;;;;35.05;11.93;;;9.70;91.60;;;;;;5043614;28;20089;-57
2023/02/22 05:12:55;;;;;;;43.45;12.48;;;9.70;91.60;;;;;;5043513;28;20116;-57
2023/02/22 05:15:21;;;;;;;35.30;11.93;;;9.70;91.50;;;;;;5044756;28;20041;-57
2023/02/22 05:17:47;;;;;;;46.17;11.55;;;9.70;91.50;;;;;;5043282;28;20047;-57
2023/02/22 05:20:29;;;;;;;34.70;11.68;;;9.70;91.50;;;;;;5043468;28;20072;-57
2023/02/22 05:22:55;;;;;;;32.03;11.82;;;9.70;91.50;;;;;;5044636;28;20029;-57
2023/02/22 05:25:21;;;;;;;33.83;11.18;;;9.60;91.50;;;;;;5044682;28;20146;-57
2023/02/22 05:28:00;;;;;;;31.83;10.98;;;9.60;91.60;;;;;;5044544;28;20513;-57
2023/02/22 05:30:28;;;;;;;29.73;10.90;;;9.60;91.60;;;;;;5043312;28;20037;-57
2023/02/22 05:32:53;;;;;;;40.78;11.70;;;9.60;91.60;;;;;;5044520;28;20038;-57
2023/02/22 05:35:19;;;;;;;29.02;11.60;;;9.60;91.60;;;;;;5043031;28;20114;-57
2023/02/22 05:37:45;;;;;;;34.05;12.18;;;9.60;91.60;;;;;;5043062;28;20468;-57
2023/02/22 05:40:11;;;;;;;23.35;9.55;;;9.60;91.60;;;;;;5043262;28;20036;-57
2023/02/22 05:42:36;;;;;;;29.85;10.35;;;9.60;91.60;;;;;;5043346;28;20040;-57
2023/02/22 05:45:02;;;;;;;32.22;10.55;;;9.60;91.60;;;;;;5044535;28;20037;-57
2023/02/22 05:47:28;;;;;;;26.40;10.35;;;9.60;91.50;;;;;;5043037;28;20044;-57
2023/02/22 05:49:53;;;;;;;31.02;10.73;;;9.60;91.50;;;;;;5044497;28;20041;-57
2023/02/22 05:52:19;;;;;;;25.13;10.75;;;9.60;91.50;;;;;;5043406;28;20461;-57
2023/02/22 05:54:45;;;;;;;34.42;10.65;;;9.60;91.60;;;;;;5044849;28;20335;-57
2023/02/22 05:57:10;;;;;;;32.03;10.38;;;9.50;91.60;;;;;;5048440;28;20116;-57
2023/02/22 05:59:36;;;;;;;20.40;9.50;;;9.50;91.70;;;;;;5048262;28;20028;-57
2023/02/22 06:02:01;;;;;;;33.42;10.50;;;9.50;91.70;;;;;;5046711;28;20048;-57
2023/02/22 06:04:27;;;;;;;25.25;10.32;;;9.50;91.80;;;;;;5046739;28;20172;-57
2023/02/22 06:06:53;;;;;;;27.50;10.35;;;9.50;91.90;;;;;;5046571;28;20127;-57
2023/02/22 06:09:18;;;;;;;28.75;9.32;;;9.50;92.00;;;;;;5047600;28;20112;-57
2023/02/22 06:11:44;;;;;;;18.40;9.02;;;9.50;92.00;;;;;;5046628;28;20036;-57
2023/02/22 06:14:09;;;;;;;29.55;9.77;;;9.50;92.00;;;;;;5046387;28;20033;-57
2023/02/22 06:16:35;;;;;;;23.77;9.77;;;9.50;92.00;;;;;;5062929;28;20033;-57
2023/02/22 06:19:00;;;;;;;20.00;9.40;;;9.40;92.00;;;;;;5046407;28;20098;-59
2023/02/22 06:21:26;;;;;;;25.13;10.13;;;9.40;92.00;;;;;;5046298;28;20032;-57
2023/02/22 06:23:51;;;;;;;23.10;9.43;;;9.50;92.10;;;;;;5047478;28;20101;-57
2023/02/22 06:26:17;;;;;;;25.38;9.60;;;9.40;92.10;;;;;;5047702;28;20060;-57
2023/02/22 06:28:44;;;;;;;22.38;9.10;;;9.40;92.10;;;;;;5029574;28;20052;-57
2023/02/22 06:31:09;;;;;;;31.23;10.02;;;9.40;92.10;;;;;;5047554;28;20103;-57
2023/02/22 06:33:35;;;;;;;23.17;8.88;;;9.40;92.00;;;;;;5047495;28;20030;-57
2023/02/22 06:36:00;;;;;;;23.67;9.35;;;9.40;92.00;;;;;;5047443;28;20033;-57
2023/02/22 06:38:26;;;;;;;20.27;9.13;;;9.40;92.00;;;;;;5046139;28;20044;-56
2023/02/22 06:40:54;;;;;;;18.15;8.77;;;9.40;92.00;;;;;;5046121;28;20033;-57
2023/02/22 06:43:20;;;;;;;19.50;8.77;;;9.40;92.00;;;;;;5045741;28;20022;-57
2023/02/22 06:45:45;;;;;;;22.70;9.55;;;9.30;92.00;;;;;;5045909;28;20037;-57
2023/02/22 06:48:11;;;;;;;18.85;8.77;;;9.40;92.00;;;;;;5045768;28;20040;-57
2023/02/22 06:50:37;;;;;;;18.88;8.55;;;9.30;92.00;;;;;;5045875;28;20092;-57
2023/02/22 06:53:02;;;;;;;15.50;8.40;;;9.30;92.00;;;;;;5045691;28;20041;-57
2023/02/22 06:55:29;;;;;;;19.13;8.25;;;9.30;92.10;;;;;;5045708;28;20063;-57
2023/02/22 06:57:55;;;;;;;19.60;8.43;;;9.30;92.00;;;;;;5045850;28;20018;-57
2023/02/22 07:00:23;;;;;;;20.58;8.05;;;9.30;92.00;;;;;;5045648;28;20085;-57
2023/02/22 07:02:49;;;;;;;20.27;7.65;;;9.30;92.10;;;;;;5045856;28;20033;-57
2023/02/22 07:05:15;;;;;;;21.92;8.65;;;9.20;92.00;;;;;;5045706;28;20026;-57
2023/02/22 07:07:41;;;;;;;22.90;7.93;;;9.20;92.00;;;;;;5044930;28;20033;-57
2023/02/22 07:10:07;;;;;;;19.00;8.30;;;9.30;92.00;;;;;;5045443;28;20034;-57
2023/02/22 07:12:33;;;;;;;22.02;8.82;;;9.20;92.00;;;;;;5045582;28;20033;-57
2023/02/22 07:14:59;;;;;;;26.10;8.60;;;9.20;92.00;;;;;;5045512;28;20034;-57
2023/02/22 07:17:25;;;;;;;23.02;8.15;;;9.20;92.00;;;;;;5045514;28;20100;-57
2023/02/22 07:19:50;;;;;;;16.63;7.93;;;9.20;92.00;;;;;;5046939;28;20055;-57
2023/02/22 07:22:16;;;;;;;19.83;7.53;;;9.20;92.00;;;;;;5046766;28;20040;-57
2023/02/22 07:24:42;;;;;;;16.00;7.90;;;9.20;92.00;;;;;;5046454;28;20036;-57
2023/02/22 07:27:07;;;;;;;16.75;8.07;;;9.20;92.00;;;;;;5061817;28;20036;-57
2023/02/22 07:29:34;;;;;;;18.17;7.68;;;9.10;91.90;;;;;;5028187;28;20048;-57
2023/02/22 07:32:01;;;;;;;14.23;7.45;;;9.20;92.00;;;;;;5045407;28;20099;-57
2023/02/22 07:34:26;;;;;;;25.08;8.25;;;9.10;91.90;;;;;;5045370;28;20029;-57
2023/02/22 07:36:52;;;;;;;15.80;8.32;;;9.10;91.90;;;;;;5046553;28;20053;-57
2023/02/22 07:39:17;;;;;;;22.75;8.25;;;9.10;91.90;;;;;;5045165;28;20355;-57
2023/02/22 07:41:43;;;;;;;14.10;8.00;;;9.10;91.90;;;;;;5045257;28;20033;-57
2023/02/22 07:44:08;;;;;;;17.85;7.97;;;9.10;91.90;;;;;;5044796;28;20029;-57
2023/02/22 07:46:34;;;;;;;15.57;8.55;;;9.10;91.90;;;;;;5044847;28;20033;-57
2023/02/22 07:48:59;;;;;;;14.30;7.80;;;9.10;91.90;;;;;;5045839;28;20033;-57
2023/02/22 07:51:25;;;;;;;14.77;7.63;;;9.10;91.90;;;;;;5044657;28;20100;-57
2023/02/22 07:53:51;;;;;;;16.65;7.55;;;9.10;91.90;;;;;;5061275;28;20031;-57
2023/02/22 07:56:17;;;;;;;17.35;8.25;;;9.10;91.90;;;;;;5045731;28;20053;-57
2023/02/22 07:58:42;;;;;;;20.40;7.97;;;9.10;91.80;;;;;;5044451;28;20022;-57
2023/02/22 08:01:08;;;;;;;12.60;6.88;;;9.00;91.80;;;;;;5044479;28;20044;-57
2023/02/22 08:03:35;;;;;;;16.75;8.63;;;9.10;91.90;;;;;;5045875;28;20085;-57
2023/02/22 08:06:01;;;;;;;19.52;8.00;;;9.00;91.80;;;;;;5044670;28;20030;-57
2023/02/22 08:08:27;;;;;;;11.65;7.15;;;9.10;91.90;;;;;;5045635;28;20048;-57
2023/02/22 08:10:53;;;;;;;18.65;8.55;;;9.00;92.20;;;;;;5044415;28;20450;-57
2023/02/22 08:13:20;;;;;;;12.57;8.02;;;9.10;91.90;;;;;;5046243;28;20033;-55
2023/02/22 08:15:46;;;;;;;11.35;7.80;;;9.00;91.80;;;;;;5047147;28;20025;-57
2023/02/22 08:18:14;;;;;;;13.60;7.85;;;9.10;91.80;;;;;;5044578;28;20152;-57
2023/02/22 08:20:40;;;;;;;14.65;8.13;;;9.00;91.80;;;;;;5046004;28;20037;-57
2023/02/22 08:23:06;;;;;;;10.98;8.02;;;9.00;91.80;;;;;;5045468;28;20104;-57
2023/02/22 08:25:32;;;;;;;14.40;8.05;;;9.00;91.80;;;;;;5045098;28;20030;-57
2023/02/22 08:28:05;;;;;;;19.77;8.13;;;9.10;91.80;;;;;;5044041;28;20030;-57
2023/02/22 08:30:31;;;;;;;13.15;7.28;;;9.00;91.80;;;;;;5044070;28;20030;-57
2023/02/22 08:32:57;;;;;;;17.85;8.38;;;9.10;91.90;;;;;;5043731;28;20063;-57
2023/02/22 08:35:23;;;;;;;24.10;8.18;;;9.10;91.90;;;;;;5043525;28;20033;-57
2023/02/22 08:37:50;;;;;;;19.58;8.10;;;9.10;91.90;;;;;;5043963;28;20068;-57
2023/02/22 08:40:18;;;;;;;18.27;7.90;;;9.10;91.90;;;;;;5044000;28;20044;-57
2023/02/22 08:42:44;;;;;;;16.10;7.80;;;9.10;91.90;;;;;;5043691;28;20089;-57
2023/02/22 08:45:09;;;;;;;17.50;8.80;;;9.10;91.90;;;;;;5043675;28;20034;-57
2023/02/22 08:47:35;;;;;;;24.33;8.57;;;9.10;91.90;;;;;;5043538;28;20033;-57
2023/02/22 08:50:01;;;;;;;18.02;8.75;;;9.10;91.90;;;;;;5026901;28;20030;-57
2023/02/22 08:52:26;;;;;;;14.18;7.95;;;9.10;91.90;;;;;;5043466;28;20049;-57
2023/02/22 08:54:52;;;;;;;23.40;9.18;;;9.10;91.90;;;;;;5044823;28;20116;-57
2023/02/22 08:57:17;;;;;;;15.88;8.25;;;9.10;91.90;;;;;;5043567;28;20022;-57
2023/02/22 08:59:43;;;;;;;29.02;8.65;;;9.10;91.90;;;;;;5044944;28;20032;-57
2023/02/22 09:02:16;;;;;;;19.45;8.77;;;9.10;91.90;;;;;;5044712;28;20055;-57
2023/02/22 09:04:42;;;;;;;19.60;8.75;;;9.10;91.90;;;;;;5043616;28;20038;-57
2023/02/22 09:07:07;;;;;;;23.67;8.93;;;9.10;91.90;;;;;;5043325;28;20025;-57
2023/02/22 09:09:33;;;;;;;18.92;8.50;;;9.10;92.00;;;;;;5043492;28;20037;-57
2023/02/22 09:11:58;;;;;;;31.98;9.10;;;9.20;92.00;;;;;;5044662;28;20085;-57
2023/02/22 09:14:24;;;;;;;20.90;8.07;;;9.20;92.30;;;;;;5059816;28;20057;-57
2023/02/22 09:16:49;;;;;;;22.83;9.40;;;9.20;92.00;;;;;;5043348;28;20018;-57
2023/02/22 09:19:15;;;;;;;21.08;8.15;;;9.10;92.00;;;;;;5043165;28;20036;-57
2023/02/22 09:21:41;;;;;;;23.25;8.55;;;9.20;92.00;;;;;;5044767;28;20025;-57
2023/02/22 09:24:09;;;;;;;27.75;10.23;;;9.20;92.00;;;;;;5044661;28;20025;-57
2023/02/22 09:26:38;;;;;;;24.80;8.98;;;9.20;92.00;;;;;;5043469;28;20029;-57
2023/02/22 09:29:05;;;;;;;53.15;10.77;;;9.20;92.00;;;;;;5043703;28;20091;-57
2023/02/22 09:31:33;;;;;;;30.08;8.63;;;9.20;92.00;;;;;;5048473;28;20095;-57
2023/02/22 09:33:58;;;;;;;28.85;8.75;;;9.30;92.10;;;;;;5045552;28;20039;-57
2023/02/22 09:36:24;;;;;;;23.55;8.95;;;9.30;92.10;;;;;;5045932;28;20065;-57
2023/02/22 09:38:49;;;;;;;32.78;9.60;;;9.30;92.10;;;;;;5046656;28;20056;-57
2023/02/22 09:41:22;;;;;;;28.70;9.60;;;9.30;92.10;;;;;;5048220;28;20037;-57
2023/02/22 09:43:52;;;;;;;30.20;8.57;;;9.30;92.20;;;;;;5046886;28;20029;-57
2023/02/22 09:46:34;;;;;;;31.55;9.32;;;9.40;92.20;;;;;;5046760;28;20033;-58
2023/02/22 09:49:05;;;;;;;32.05;9.80;;;9.40;92.20;;;;;;5046689;28;20045;-57
2023/02/22 09:52:00;;;;;;;28.67;8.70;;;9.40;92.20;;;;;;5046699;28;20037;-57
2023/02/22 09:54:36;;;;;;;33.70;10.25;;;9.40;92.20;;;;;;5046426;28;20050;-57
2023/02/22 09:57:04;;;;;;;39.85;9.82;;;9.40;92.20;;;;;;5046904;28;20021;-57
2023/02/22 09:59:32;;;;;;;37.22;9.80;;;9.50;92.20;;;;;;5047216;28;20079;-57
2023/02/22 10:02:25;;;;;;;37.80;9.38;;;9.50;92.20;;;;;;5046664;28;20024;-57
2023/02/22 10:05:04;;;;;;;29.10;9.50;;;9.50;92.10;;;;;;5047138;28;20037;-57
2023/02/22 10:07:32;;;;;;;35.15;9.55;;;9.60;92.20;;;;;;5046641;28;20029;-57
2023/02/22 10:10:04;;;;;;;40.38;10.18;;;9.60;92.20;;;;;;5046402;28;20029;-57
2023/02/22 10:12:36;;;;;;;22.95;9.05;;;9.60;92.20;;;;;;5046653;28;20056;-57
2023/02/22 10:15:07;;;;;;;31.35;9.63;;;9.60;92.20;;;;;;5047759;28;20089;-57
2023/02/22 10:18:13;;;;;;;34.88;8.95;;;9.70;92.20;;;;;;5047781;28;20029;-57
2023/02/22 10:20:41;;;;;;;31.17;9.80;;;9.70;92.20;;;;;;5046670;28;20037;-57
2023/02/22 10:23:27;;;;;;;33.72;10.18;;;9.70;92.10;;;;;;5046291;28;20091;-57
2023/02/22 10:25:56;;;;;;;36.63;10.13;;;9.70;92.10;;;;;;5047506;28;20033;-57
2023/02/22 10:28:37;;;;;;;46.10;11.52;;;9.80;92.30;;;;;;5047696;28;20048;-57
2023/02/22 10:31:11;;;;;;;36.65;10.05;;;9.80;92.30;;;;;;5036324;28;20466;-57
2023/02/22 10:33:44;;;;;;;52.20;10.43;;;9.80;92.30;;;;;;5049643;28;20068;-57
2023/02/22 10:36:20;;;;;;;40.15;10.35;;;9.90;92.30;;;;;;5061203;28;20085;-57
2023/02/22 10:38:59;;;;;;;32.83;11.20;;;9.90;92.30;;;;;;5033482;28;20035;-57
2023/02/22 10:41:30;;;;;;;39.80;11.35;;;9.90;92.30;;;;;;5055021;28;20028;-57
2023/02/22 10:43:55;;;;;;;55.55;11.90;;;9.90;92.30;;;;;;5042629;28;20113;-56
2023/02/22 10:46:21;;;;;;;53.03;12.90;;;10.00;92.40;;;;;;5048730;28;20037;-57
2023/02/22 10:48:49;;;;;;;58.97;12.95;;;10.00;92.40;;;;;;5061279;28;20021;-57
2023/02/22 10:51:14;;;;;;;35.85;12.57;;;10.00;92.40;;;;;;5050443;28;20063;-57
2023/02/22 10:53:40;;;;;;;45.38;10.80;;;10.00;92.40;;;;;;5054428;28;20039;-57
2023/02/22 10:56:20;;;;;;;32.53;11.50;;;10.10;92.40;;;;;;5054816;28;20029;-57
2023/02/22 10:59:01;;;;;;;36.30;11.70;;;10.10;92.40;;;;;;5037523;28;20056;-57
2023/02/22 11:01:37;;;;;;;39.67;13.07;;;10.10;92.50;;;;;;5043546;28;20053;-57
2023/02/22 11:04:03;;;;;;;37.42;12.80;;;10.10;92.50;;;;;;5043984;28;20021;-57
2023/02/22 11:06:29;;;;;;;43.35;12.52;;;10.20;92.60;;;;;;5038556;28;20196;-57
2023/02/22 11:09:10;;;;;;;42.90;13.20;;;10.20;92.60;;;;;;5028310;28;20025;-57
2023/02/22 11:11:36;;;;;;;50.85;13.43;;;10.20;92.60;;;;;;5025216;28;20029;-57
2023/02/22 11:14:05;;;;;;;38.83;12.18;;;10.20;92.50;;;;;;5038920;28;20064;-57
2023/02/22 11:16:31;;;;;;;38.03;13.40;;;10.30;92.50;;;;;;5029897;28;20052;-57
2023/02/22 11:19:01;;;;;;;28.33;12.18;;;10.30;92.50;;;;;;5037351;28;20442;-57
2023/02/22 11:21:27;;;;;;;35.50;13.45;;;10.30;92.60;;;;;;5041644;28;20030;-57
2023/02/22 11:24:04;;;;;;;43.90;12.70;;;10.40;92.70;;;;;;5037308;28;20034;-57
2023/02/22 11:26:42;;;;;;;46.88;13.55;;;10.40;92.70;;;;;;5031143;28;20170;-57
2023/02/22 11:29:27;;;;;;;53.67;14.52;;;10.50;92.80;;;;;;5029270;28;20044;-58
2023/02/22 11:31:52;;;;;;;66.50;16.13;;;10.60;92.80;;;;;;5033900;28;20108;-57
2023/02/22 11:34:36;;;;;;;81.18;15.80;;;10.60;92.70;;;;;;5019180;28;20480;-58
2023/02/22 11:37:15;;;;;;;97.65;18.52;;;10.60;92.80;;;;;;5027583;28;20083;-57
2023/02/22 11:39:42;;;;;;;99.50;19.70;;;10.60;92.80;;;;;;5038315;28;20041;-58
2023/02/22 11:42:28;;;;;;;89.40;19.63;;;10.70;92.90;;;;;;5059145;28;20022;-57
2023/02/22 11:45:20;;;;;;;87.05;18.02;;;10.70;93.00;;;;;;5041657;28;20057;-57
2023/02/22 11:47:51;;;;;;;154.40;23.48;;;10.70;93.10;;;;;;5034453;28;20044;-58
2023/02/22 11:50:49;;;;;;;160.82;24.63;;;10.80;93.10;;;;;;5027036;28;20034;-57
2023/02/22 11:53:33;;;;;;;123.63;20.60;;;10.80;93.00;;;;;;5047854;28;20711;-57
2023/02/22 11:55:59;;;;;;;120.85;22.52;;;10.90;93.00;;;;;;5044448;28;20117;-57
2023/02/22 11:58:54;;;;;;;146.85;22.80;;;10.90;93.00;;;;;;5039896;28;20829;-57
2023/02/22 12:01:31;;;;;;;90.15;20.27;;;11.00;93.00;;;;;;5041009;28;20055;-58
2023/02/22 12:04:35;;;;;;;83.47;17.58;;;11.00;93.00;;;;;;5023580;28;20029;-58
2023/02/22 12:07:16;;;;;;;139.60;22.80;;;11.00;92.80;;;;;;5040285;28;20041;-57
2023/02/22 12:10:25;;;;;;;115.38;19.33;;;11.10;92.80;;;;;;5035258;28;20042;-58
2023/02/22 12:13:26;;;;;;;92.22;19.45;;;11.10;92.80;;;;;;5029244;28;20037;-58
2023/02/22 12:15:51;;;;;;;92.88;20.35;;;11.10;92.80;;;;;;5032029;28;20045;-57
2023/02/22 12:18:28;;;;;;;93.85;20.70;;;11.20;92.90;;;;;;5043785;28;20420;-57
2023/02/22 12:20:57;;;;;;;176.05;25.42;;;11.30;93.20;;;;;;5043089;28;20060;-57
2023/02/22 12:23:32;;;;;;;88.03;19.40;;;11.30;92.90;;;;;;5018823;28;20060;-57
2023/02/22 12:25:59;;;;;;;105.13;19.55;;;11.30;92.70;;;;;;5043928;28;20040;-57
2023/02/22 12:28:29;;;;;;;98.82;19.50;;;11.30;92.50;;;;;;5026273;28;20052;-57
2023/02/22 12:31:15;;;;;;;102.40;21.88;;;11.40;92.50;;;;;;5037346;28;20030;-57
2023/02/22 12:34:08;;;;;;;99.43;19.17;;;11.40;92.50;;;;;;5043261;28;20030;-57
2023/02/22 12:36:45;;;;;;;61.83;17.25;;;11.40;92.30;;;;;;5044228;28;20048;-57
2023/02/22 12:39:33;;;;;;;86.10;17.33;;;11.50;92.30;;;;;;5026542;28;20022;-57
2023/02/22 12:41:59;;;;;;;67.82;15.23;;;11.50;92.10;;;;;;5041872;28;20108;-57
2023/02/22 12:44:31;;;;;;;73.80;16.42;;;11.50;92.00;;;;;;5038069;28;20049;-57
2023/02/22 12:46:58;;;;;;;61.85;16.40;;;11.60;91.90;;;;;;5036528;28;20025;-57